Time;durP1;ratioP1;P1;durP2;ratioP2;P2;SDS_P1;SDS_P2;PMS_P1;PMS_P2;Temp;Humidity;BMP_temperature;BMP_pressure;BME280_temperature;BME280_humidity;BME280_pressure;Samples;Min_cycle;Max_cycle;Signal;HPM_P1;HPM_P2
2022/02/15 00:00:10;;;;;;;42.35;26.67;;;5.10;99.90;;;;;;2088225;28;20404;-74
2022/02/15 00:01:13;;;;;;;44.60;27.83;;;5.10;99.90;;;;;;2080733;28;20148;-74
2022/02/15 00:02:14;;;;;;;45.85;29.30;;;5.10;99.90;;;;;;2081433;28;20147;-74
2022/02/15 00:03:15;;;;;;;43.47;28.35;;;5.10;99.90;;;;;;2089802;28;20507;-75
2022/02/15 00:04:16;;;;;;;40.55;26.95;;;5.10;99.90;;;;;;2089898;28;20420;-74
2022/02/15 00:05:16;;;;;;;43.30;27.83;;;5.10;99.90;;;;;;2089063;28;20033;-74
2022/02/15 00:06:17;;;;;;;42.70;26.90;;;5.10;99.90;;;;;;2088911;28;20559;-73
2022/02/15 00:07:18;;;;;;;44.08;27.63;;;5.10;99.90;;;;;;2088187;28;20032;-72
2022/02/15 00:08:18;;;;;;;43.83;27.65;;;5.10;99.90;;;;;;2088294;28;20047;-73
2022/02/15 00:09:19;;;;;;;43.05;26.88;;;5.10;99.90;;;;;;2088528;28;20127;-72
2022/02/15 00:10:20;;;;;;;42.15;27.55;;;5.10;99.90;;;;;;2088227;28;20428;-72
2022/02/15 00:11:20;;;;;;;42.85;27.88;;;5.10;99.90;;;;;;2088603;28;20084;-72
2022/02/15 00:12:21;;;;;;;55.50;32.22;;;5.10;99.90;;;;;;2081028;28;20057;-70
2022/02/15 00:13:22;;;;;;;43.72;27.88;;;5.10;99.90;;;;;;2081567;28;20061;-72
2022/02/15 00:14:22;;;;;;;45.08;28.13;;;5.10;99.90;;;;;;2091033;28;20029;-72
2022/02/15 00:15:23;;;;;;;40.50;26.60;;;5.10;99.90;;;;;;2093091;28;20509;-74
2022/02/15 00:16:24;;;;;;;50.15;30.40;;;5.10;99.90;;;;;;2092375;28;20087;-73
2022/02/15 00:17:25;;;;;;;42.65;27.60;;;5.00;99.90;;;;;;2075040;28;20037;-72
2022/02/15 00:18:26;;;;;;;43.97;28.15;;;5.00;99.90;;;;;;2074392;28;20061;-72
2022/02/15 00:19:27;;;;;;;42.03;27.77;;;5.00;99.90;;;;;;2089714;28;20155;-72
2022/02/15 00:20:28;;;;;;;45.92;28.60;;;5.00;99.90;;;;;;2089815;28;20017;-70
2022/02/15 00:21:28;;;;;;;45.20;28.30;;;5.00;99.90;;;;;;2089488;28;20037;-74
2022/02/15 00:22:29;;;;;;;44.40;27.92;;;5.00;99.90;;;;;;2090982;28;20082;-72
2022/02/15 00:23:30;;;;;;;45.03;28.75;;;5.00;99.90;;;;;;2082719;28;20393;-74
2022/02/15 00:24:30;;;;;;;42.42;28.48;;;5.00;99.90;;;;;;2082919;28;20029;-73
2022/02/15 00:25:31;;;;;;;49.10;30.73;;;5.00;99.90;;;;;;2086795;28;20108;-72
2022/02/15 00:26:32;;;;;;;48.72;29.33;;;5.00;99.90;;;;;;2088121;28;20040;-73
2022/02/15 00:27:33;;;;;;;42.50;28.02;;;5.00;99.90;;;;;;2087723;28;20036;-73
2022/02/15 00:28:34;;;;;;;44.85;28.73;;;4.90;99.90;;;;;;2085134;28;20032;-73
2022/02/15 00:29:35;;;;;;;41.03;27.52;;;5.00;99.90;;;;;;2086399;28;20466;-73
2022/02/15 00:30:36;;;;;;;42.65;27.95;;;5.00;99.90;;;;;;2088645;28;20104;-74
2022/02/15 00:31:37;;;;;;;43.42;28.65;;;5.00;99.90;;;;;;2089489;28;20512;-74
2022/02/15 00:32:38;;;;;;;43.25;28.00;;;5.00;99.90;;;;;;2082134;28;20056;-73
2022/02/15 00:33:39;;;;;;;41.65;27.33;;;5.00;99.90;;;;;;2079736;28;20042;-73
2022/02/15 00:34:40;;;;;;;42.80;27.25;;;4.90;99.90;;;;;;2090147;28;20024;-73
2022/02/15 00:35:40;;;;;;;42.92;27.58;;;4.90;99.90;;;;;;2087985;28;20021;-73
2022/02/15 00:36:41;;;;;;;40.72;27.08;;;4.90;99.90;;;;;;2088846;28;20059;-72
2022/02/15 00:37:43;;;;;;;42.47;27.65;;;4.90;99.90;;;;;;2078283;28;20022;-73
2022/02/15 00:38:44;;;;;;;39.47;26.90;;;4.90;99.90;;;;;;2087348;28;20076;-73
2022/02/15 00:39:44;;;;;;;36.70;25.77;;;4.90;99.90;;;;;;2085074;28;20029;-72
2022/02/15 00:40:45;;;;;;;40.08;27.45;;;4.90;99.90;;;;;;2088138;28;20048;-73
2022/02/15 00:41:46;;;;;;;42.15;26.70;;;4.90;99.90;;;;;;2090644;28;20024;-74
2022/02/15 00:42:48;;;;;;;41.78;28.00;;;4.90;99.90;;;;;;2090375;28;20064;-72
2022/02/15 00:43:48;;;;;;;39.08;26.85;;;4.90;99.90;;;;;;2089290;28;20531;-72
2022/02/15 00:44:49;;;;;;;42.08;27.45;;;4.90;99.90;;;;;;2090229;28;20103;-72
2022/02/15 00:45:50;;;;;;;42.15;26.73;;;5.00;99.90;;;;;;2087112;28;20392;-71
2022/02/15 00:46:51;;;;;;;41.15;26.90;;;5.00;99.90;;;;;;2073737;28;20060;-74
2022/02/15 00:47:52;;;;;;;41.65;27.05;;;5.00;99.90;;;;;;2081403;28;20036;-73
2022/02/15 00:48:53;;;;;;;41.08;27.67;;;5.00;99.90;;;;;;2091404;28;20029;-73
2022/02/15 00:49:54;;;;;;;40.42;26.55;;;5.00;99.90;;;;;;2089302;28;20025;-74
2022/02/15 00:50:55;;;;;;;40.65;27.25;;;5.00;99.90;;;;;;2092608;28;20021;-73
2022/02/15 00:51:55;;;;;;;42.25;27.27;;;5.00;99.90;;;;;;2083228;28;20465;-72
2022/02/15 00:52:56;;;;;;;41.90;27.63;;;5.00;99.90;;;;;;2091512;28;20033;-73
2022/02/15 00:53:57;;;;;;;40.40;26.20;;;5.00;99.90;;;;;;2087746;28;20493;-73
2022/02/15 00:54:58;;;;;;;41.13;27.20;;;4.90;99.90;;;;;;2090034;28;20479;-72
2022/02/15 00:55:58;;;;;;;41.17;26.52;;;4.90;99.90;;;;;;2085953;28;20124;-72
2022/02/15 00:57:00;;;;;;;37.63;26.50;;;4.90;99.90;;;;;;2089876;28;20029;-74
2022/02/15 00:58:00;;;;;;;41.45;26.88;;;4.90;99.90;;;;;;2087262;28;20171;-72
2022/02/15 00:59:01;;;;;;;41.22;27.00;;;4.90;99.90;;;;;;2089508;28;20025;-73
2022/02/15 01:00:03;;;;;;;40.30;26.75;;;4.80;99.90;;;;;;2074728;28;20104;-74
2022/02/15 01:01:04;;;;;;;49.88;31.77;;;4.80;99.90;;;;;;2074635;28;20030;-73
2022/02/15 01:02:05;;;;;;;44.88;28.73;;;4.80;99.90;;;;;;2085238;28;20584;-72
2022/02/15 01:03:05;;;;;;;46.70;29.90;;;4.80;99.90;;;;;;2090225;28;20017;-73
2022/02/15 01:04:06;;;;;;;43.45;28.50;;;4.80;99.90;;;;;;2090189;28;20503;-71
2022/02/15 01:05:07;;;;;;;42.38;27.52;;;4.80;99.90;;;;;;2090341;28;20113;-72
2022/02/15 01:06:11;;;;;;;44.10;28.23;;;4.80;99.90;;;;;;2084940;28;20519;-72
2022/02/15 01:07:12;;;;;;;40.17;27.10;;;4.80;99.90;;;;;;2081324;28;20034;-72
2022/02/15 01:08:13;;;;;;;39.20;26.33;;;4.80;99.90;;;;;;2081287;28;20017;-71
2022/02/15 01:09:13;;;;;;;39.67;25.75;;;4.80;99.90;;;;;;2082898;28;20048;-72
2022/02/15 01:10:14;;;;;;;45.60;30.15;;;4.70;99.90;;;;;;2080765;28;20069;-72
2022/02/15 01:11:15;;;;;;;43.70;28.27;;;4.70;99.90;;;;;;2089520;28;20029;-71
2022/02/15 01:12:16;;;;;;;38.63;26.25;;;4.70;99.90;;;;;;2089183;28;20100;-72
2022/02/15 01:13:18;;;;;;;37.20;25.58;;;4.70;99.90;;;;;;2081313;28;20481;-73
2022/02/15 01:14:19;;;;;;;39.83;26.65;;;4.70;99.90;;;;;;2085367;28;20033;-73
2022/02/15 01:15:20;;;;;;;39.80;26.70;;;4.70;99.90;;;;;;2089823;28;20575;-72
2022/02/15 01:16:20;;;;;;;37.97;25.95;;;4.70;99.90;;;;;;2091239;28;20029;-72
2022/02/15 01:17:21;;;;;;;43.42;28.65;;;4.60;99.90;;;;;;2081230;28;20528;-71
2022/02/15 01:18:25;;;;;;;41.53;27.42;;;4.60;99.90;;;;;;2077146;28;20026;-71
2022/02/15 01:19:26;;;;;;;41.15;27.08;;;4.60;99.90;;;;;;2081788;28;20128;-72
2022/02/15 01:20:29;;;;;;;41.67;26.58;;;4.60;99.90;;;;;;2085689;28;20028;-72
2022/02/15 01:21:30;;;;;;;40.30;26.90;;;4.60;99.90;;;;;;2090306;28;20044;-73
2022/02/15 01:22:31;;;;;;;40.25;26.73;;;4.50;99.90;;;;;;2085225;28;20052;-73
2022/02/15 01:23:32;;;;;;;49.00;30.77;;;4.50;99.90;;;;;;2089544;28;20495;-73
2022/02/15 01:24:32;;;;;;;45.83;28.80;;;4.50;99.90;;;;;;2073027;28;20438;-72
2022/02/15 01:25:33;;;;;;;43.03;27.58;;;4.50;99.90;;;;;;2081259;28;20025;-73
2022/02/15 01:26:34;;;;;;;42.65;28.05;;;4.50;99.90;;;;;;2089995;28;20075;-73
2022/02/15 01:27:35;;;;;;;41.97;27.90;;;4.50;99.90;;;;;;2090722;28;20484;-71
2022/02/15 01:28:37;;;;;;;41.42;26.45;;;4.50;99.90;;;;;;2081453;28;20560;-72
2022/02/15 01:29:37;;;;;;;40.10;27.02;;;4.50;99.90;;;;;;2089575;28;20027;-74
2022/02/15 01:30:38;;;;;;;41.38;27.50;;;4.50;99.90;;;;;;2089115;28;20029;-72
2022/02/15 01:31:39;;;;;;;39.63;26.20;;;4.50;99.90;;;;;;2089796;28;20024;-72
2022/02/15 01:32:40;;;;;;;37.97;26.52;;;4.40;99.90;;;;;;2089893;28;20041;-72
2022/02/15 01:33:40;;;;;;;37.55;26.10;;;4.50;99.90;;;;;;2089733;28;20021;-72
2022/02/15 01:34:41;;;;;;;39.45;26.38;;;4.50;99.90;;;;;;2090185;28;20476;-75
2022/02/15 01:35:42;;;;;;;38.38;25.88;;;4.40;99.90;;;;;;2090273;28;20028;-72
2022/02/15 01:36:45;;;;;;;37.72;25.20;;;4.50;99.90;;;;;;2089386;28;20041;-72
2022/02/15 01:37:52;;;;;;;36.35;24.35;;;4.50;99.90;;;;;;2081932;28;20029;-72
2022/02/15 01:38:54;;;;;;;38.75;25.38;;;4.50;99.90;;;;;;2081492;28;20025;-71
2022/02/15 01:39:56;;;;;;;42.80;27.60;;;4.50;99.90;;;;;;2080652;28;20025;-72
2022/02/15 01:40:58;;;;;;;38.65;26.10;;;4.50;99.90;;;;;;2089517;28;20029;-73
2022/02/15 01:42:01;;;;;;;41.42;27.33;;;4.50;99.90;;;;;;2089067;28;20024;-73
2022/02/15 01:43:01;;;;;;;37.60;25.48;;;4.50;99.90;;;;;;2081062;28;20057;-73
2022/02/15 01:44:03;;;;;;;41.55;26.95;;;4.50;99.90;;;;;;2081091;28;20029;-72
2022/02/15 01:45:08;;;;;;;39.08;26.15;;;4.60;99.90;;;;;;2081253;28;20029;-71
2022/02/15 01:46:10;;;;;;;41.25;27.10;;;4.60;99.90;;;;;;2081520;28;20026;-73
2022/02/15 01:47:24;;;;;;;41.95;26.88;;;4.60;99.90;;;;;;2089549;28;20029;-71
2022/02/15 01:48:25;;;;;;;40.90;27.65;;;4.60;99.90;;;;;;2091503;28;20100;-73
2022/02/15 01:49:25;;;;;;;43.75;27.50;;;4.60;99.90;;;;;;2091678;28;20048;-73
2022/02/15 01:50:26;;;;;;;41.00;27.02;;;4.70;99.90;;;;;;2083631;28;20108;-73
2022/02/15 01:51:27;;;;;;;38.75;25.63;;;4.70;99.90;;;;;;2090702;28;20029;-73
2022/02/15 01:52:28;;;;;;;38.17;24.92;;;4.70;99.90;;;;;;2091083;28;20021;-73
2022/02/15 01:53:29;;;;;;;37.40;25.38;;;4.70;99.90;;;;;;2091698;28;20029;-73
2022/02/15 01:54:30;;;;;;;38.35;26.20;;;4.70;99.90;;;;;;2092117;28;20400;-73
2022/02/15 01:55:31;;;;;;;43.20;28.30;;;4.80;99.90;;;;;;2090988;28;20043;-72
2022/02/15 01:56:32;;;;;;;42.10;27.10;;;4.80;99.90;;;;;;2073197;28;20026;-73
2022/02/15 01:57:36;;;;;;;38.80;25.95;;;4.70;99.90;;;;;;2073875;28;20025;-72
2022/02/15 01:58:45;;;;;;;36.38;24.70;;;4.80;99.90;;;;;;2082792;28;20048;-74
2022/02/15 01:59:54;;;;;;;40.33;27.45;;;4.80;99.90;;;;;;2081727;28;20450;-73
2022/02/15 02:00:56;;;;;;;39.17;26.65;;;4.80;99.90;;;;;;2081746;28;20088;-73
2022/02/15 02:02:09;;;;;;;43.20;27.02;;;4.80;99.90;;;;;;2082404;28;20056;-70
2022/02/15 02:03:10;;;;;;;40.33;27.30;;;4.80;99.90;;;;;;2089463;28;20082;-72
2022/02/15 02:05:47;;;;;;;40.38;25.88;;;4.70;99.90;;;;;;2079343;28;20077;-74
2022/02/15 02:06:50;;;;;;;41.00;25.88;;;4.70;99.90;;;;;;2084464;28;20543;-72
2022/02/15 02:07:51;;;;;;;38.58;25.45;;;4.70;99.90;;;;;;2089184;28;20029;-72
2022/02/15 02:08:52;;;;;;;37.35;25.50;;;4.80;99.90;;;;;;2081973;28;20665;-72
2022/02/15 02:09:53;;;;;;;41.25;26.08;;;4.70;99.90;;;;;;2080634;28;20824;-72
2022/02/15 02:10:55;;;;;;;37.45;25.45;;;4.70;99.90;;;;;;2073514;28;20026;-72
2022/02/15 02:12:21;;;;;;;37.10;24.90;;;4.70;99.90;;;;;;2077060;28;20067;-71
2022/02/15 02:13:28;;;;;;;40.53;25.67;;;4.70;99.90;;;;;;2078292;28;20109;-72
2022/02/15 02:14:29;;;;;;;38.03;25.42;;;4.70;99.90;;;;;;2072656;28;20026;-73
2022/02/15 02:15:29;;;;;;;36.92;26.38;;;4.80;99.90;;;;;;2072856;28;20041;-73
2022/02/15 02:16:53;;;;;;;38.42;25.50;;;4.80;99.90;;;;;;2084083;28;20116;-73
2022/02/15 02:17:59;;;;;;;37.80;24.90;;;4.80;99.90;;;;;;2089387;28;20200;-73
2022/02/15 02:19:03;;;;;;;36.47;24.50;;;4.80;99.90;;;;;;2087373;28;20021;-73
2022/02/15 02:20:08;;;;;;;36.70;24.50;;;4.80;99.90;;;;;;2089411;28;20017;-73
2022/02/15 02:21:09;;;;;;;36.33;24.60;;;4.80;99.90;;;;;;2089517;28;20037;-74
2022/02/15 02:22:10;;;;;;;37.45;24.60;;;4.80;99.90;;;;;;2081439;28;20445;-72
2022/02/15 02:23:13;;;;;;;37.63;25.35;;;4.80;99.90;;;;;;2073157;28;20026;-72
2022/02/15 02:24:16;;;;;;;41.80;26.98;;;4.80;99.90;;;;;;2081610;28;20025;-72
2022/02/15 02:25:21;;;;;;;39.35;26.77;;;4.80;99.90;;;;;;2081642;28;20025;-72
2022/02/15 02:26:23;;;;;;;41.70;27.48;;;4.80;99.90;;;;;;2088890;28;20067;-72
2022/02/15 02:27:27;;;;;;;39.90;26.73;;;4.80;99.90;;;;;;2081517;28;20021;-72
2022/02/15 02:28:29;;;;;;;42.85;27.35;;;4.80;99.90;;;;;;2081909;28;20076;-72
2022/02/15 02:29:29;;;;;;;41.40;27.73;;;4.80;99.90;;;;;;2090100;28;20029;-71
2022/02/15 02:30:31;;;;;;;41.08;26.55;;;4.80;99.90;;;;;;2082995;28;20040;-72
2022/02/15 02:31:34;;;;;;;39.83;26.42;;;4.80;99.90;;;;;;2085835;28;20029;-71
2022/02/15 02:32:40;;;;;;;38.47;26.70;;;4.80;99.90;;;;;;2085344;28;20025;-71
2022/02/15 02:33:42;;;;;;;39.35;26.02;;;4.80;99.90;;;;;;2083166;28;20063;-71
2022/02/15 02:34:42;;;;;;;37.45;25.77;;;4.80;99.90;;;;;;2085549;28;20508;-74
2022/02/15 02:35:43;;;;;;;38.58;25.55;;;4.80;99.90;;;;;;2094520;28;20039;-72
2022/02/15 02:36:45;;;;;;;37.20;25.80;;;4.80;99.90;;;;;;2094804;28;20017;-72
2022/02/15 02:37:49;;;;;;;41.67;27.17;;;4.80;99.90;;;;;;2093875;28;20112;-72
2022/02/15 02:38:49;;;;;;;42.55;26.77;;;4.80;99.90;;;;;;2094162;28;20083;-72
2022/02/15 02:39:54;;;;;;;41.47;26.33;;;4.80;99.90;;;;;;2094488;28;20096;-72
2022/02/15 02:40:54;;;;;;;37.67;25.55;;;4.80;99.90;;;;;;2086475;28;20029;-72
2022/02/15 02:41:55;;;;;;;38.22;26.00;;;4.80;99.90;;;;;;2093235;28;20032;-74
2022/02/15 02:42:56;;;;;;;45.40;27.55;;;4.90;99.90;;;;;;2085220;28;20064;-73
2022/02/15 02:43:57;;;;;;;40.33;26.38;;;4.80;99.90;;;;;;2084688;28;20033;-72
2022/02/15 02:45:01;;;;;;;38.92;25.73;;;4.80;99.90;;;;;;2084812;28;20025;-73
2022/02/15 02:46:02;;;;;;;39.20;26.08;;;4.90;99.90;;;;;;2085449;28;20036;-73
2022/02/15 02:47:05;;;;;;;40.28;26.23;;;4.90;99.90;;;;;;2084806;28;20064;-74
2022/02/15 02:48:06;;;;;;;39.22;26.00;;;4.80;99.90;;;;;;2084823;28;20445;-73
2022/02/15 02:49:06;;;;;;;36.75;24.63;;;4.80;99.90;;;;;;2094924;28;20063;-72
2022/02/15 02:50:13;;;;;;;38.90;26.27;;;4.90;99.90;;;;;;2096963;28;20025;-72
2022/02/15 02:51:14;;;;;;;39.03;25.98;;;4.80;99.90;;;;;;2097366;28;20025;-72
2022/02/15 02:52:14;;;;;;;38.40;25.92;;;4.80;99.90;;;;;;2097935;28;20017;-72
2022/02/15 02:53:18;;;;;;;40.45;27.02;;;4.80;99.90;;;;;;2097205;28;20040;-72
2022/02/15 02:54:19;;;;;;;38.33;25.80;;;4.80;99.90;;;;;;2097648;28;20088;-72
2022/02/15 02:55:29;;;;;;;38.65;26.27;;;4.80;99.90;;;;;;2098720;28;20258;-72
2022/02/15 02:56:30;;;;;;;37.72;24.83;;;4.80;99.90;;;;;;2090238;28;20029;-70
2022/02/15 02:57:30;;;;;;;36.15;24.55;;;4.80;99.90;;;;;;2099273;28;20052;-71
2022/02/15 02:58:33;;;;;;;40.35;26.70;;;4.90;99.90;;;;;;2098633;28;20024;-72
2022/02/15 02:59:34;;;;;;;41.28;26.73;;;4.90;99.90;;;;;;2098575;28;20040;-71
2022/02/15 03:00:41;;;;;;;42.30;25.95;;;4.90;99.90;;;;;;2082221;28;20496;-72
2022/02/15 03:01:48;;;;;;;40.35;26.10;;;4.90;99.90;;;;;;2089379;28;20013;-72
2022/02/15 03:02:49;;;;;;;39.38;25.67;;;4.90;99.90;;;;;;2089671;28;20034;-73
2022/02/15 03:03:50;;;;;;;37.10;25.00;;;4.90;99.90;;;;;;2091107;28;20840;-72
2022/02/15 03:04:51;;;;;;;37.05;24.63;;;4.90;99.90;;;;;;2092075;28;20590;-72
2022/02/15 03:05:52;;;;;;;38.45;25.90;;;4.90;99.90;;;;;;2091420;28;20485;-71
2022/02/15 03:06:53;;;;;;;40.92;26.70;;;4.90;99.90;;;;;;2091287;28;20029;-71
2022/02/15 03:07:56;;;;;;;38.60;25.58;;;4.90;99.90;;;;;;2081332;28;20025;-72
2022/02/15 03:08:57;;;;;;;39.72;25.60;;;4.90;99.90;;;;;;2081071;28;20029;-71
2022/02/15 03:09:59;;;;;;;40.88;25.92;;;4.90;99.90;;;;;;2071362;28;20115;-72
2022/02/15 03:11:00;;;;;;;37.55;25.25;;;4.80;99.90;;;;;;2072455;28;20096;-72
2022/02/15 03:12:07;;;;;;;35.03;24.02;;;4.80;99.90;;;;;;2073935;28;20026;-72
2022/02/15 03:13:13;;;;;;;34.63;23.73;;;4.80;99.90;;;;;;2081954;28;20040;-72
2022/02/15 03:14:16;;;;;;;38.53;25.80;;;4.80;99.90;;;;;;2089361;28;20028;-73
2022/02/15 03:15:23;;;;;;;40.00;25.63;;;4.80;99.90;;;;;;2081005;28;20068;-72
2022/02/15 03:16:25;;;;;;;41.55;25.70;;;4.80;99.90;;;;;;2074086;28;20054;-72
2022/02/15 03:17:28;;;;;;;38.75;25.52;;;4.80;99.90;;;;;;2081639;28;20481;-73
2022/02/15 03:18:29;;;;;;;35.60;25.45;;;4.80;99.90;;;;;;2089305;28;20060;-72
2022/02/15 03:19:36;;;;;;;40.97;26.15;;;4.80;99.90;;;;;;2088829;28;20079;-73
2022/02/15 03:20:37;;;;;;;38.38;25.40;;;4.80;99.90;;;;;;2079954;28;20489;-73
2022/02/15 03:21:39;;;;;;;36.83;25.40;;;4.80;99.90;;;;;;2080711;28;20169;-73
2022/02/15 03:22:40;;;;;;;36.97;25.38;;;4.80;99.90;;;;;;2073155;28;20550;-73
2022/02/15 03:23:43;;;;;;;37.78;25.50;;;4.80;99.90;;;;;;2073217;28;20030;-74
2022/02/15 03:24:46;;;;;;;38.70;25.70;;;4.80;99.90;;;;;;2081169;28;20055;-73
2022/02/15 03:25:50;;;;;;;39.85;26.33;;;4.80;99.90;;;;;;2080984;28;20468;-73
2022/02/15 03:26:55;;;;;;;36.85;25.38;;;4.80;99.90;;;;;;2088650;28;20696;-73
2022/02/15 03:27:57;;;;;;;37.28;25.50;;;4.80;99.90;;;;;;2089112;28;20029;-75
2022/02/15 03:29:00;;;;;;;35.28;24.35;;;4.80;99.90;;;;;;2088701;28;20464;-71
2022/02/15 03:30:02;;;;;;;35.97;23.30;;;4.80;99.90;;;;;;2080241;28;20025;-73
2022/02/15 03:31:11;;;;;;;39.30;25.27;;;4.80;99.90;;;;;;2082322;28;20025;-72
2022/02/15 03:32:11;;;;;;;36.42;25.00;;;4.80;99.90;;;;;;2072449;28;20030;-72
2022/02/15 03:33:13;;;;;;;43.63;27.27;;;4.80;99.90;;;;;;2064979;28;20437;-73
2022/02/15 03:34:16;;;;;;;38.78;26.10;;;4.80;99.90;;;;;;2081290;28;20025;-73
2022/02/15 03:35:19;;;;;;;38.20;25.23;;;4.80;99.90;;;;;;2089064;28;20025;-73
2022/02/15 03:36:28;;;;;;;37.95;24.88;;;4.80;99.90;;;;;;2082190;28;20025;-73
2022/02/15 03:37:36;;;;;;;37.22;25.05;;;4.80;99.90;;;;;;2081704;28;20035;-72
2022/02/15 03:38:37;;;;;;;38.83;26.65;;;4.80;99.90;;;;;;2081718;28;20032;-73
2022/02/15 03:39:38;;;;;;;38.50;26.05;;;4.80;99.90;;;;;;2081956;28;20029;-73
2022/02/15 03:43:35;;;;;;;37.63;24.63;;;4.70;99.90;;;;;;2084240;28;20524;-73
2022/02/15 03:44:38;;;;;;;36.13;24.02;;;4.70;99.90;;;;;;2074863;28;20065;-73
2022/02/15 03:45:42;;;;;;;38.03;25.67;;;4.70;99.90;;;;;;2083604;28;20089;-74
2022/02/15 03:46:46;;;;;;;35.45;23.67;;;4.70;99.90;;;;;;2083026;28;20021;-73
2022/02/15 03:47:48;;;;;;;37.40;25.08;;;4.80;99.90;;;;;;2083512;28;20037;-73
2022/02/15 03:48:50;;;;;;;35.45;24.10;;;4.80;99.90;;;;;;2082705;28;20405;-72
2022/02/15 03:49:50;;;;;;;33.78;23.23;;;4.80;99.90;;;;;;2082420;28;20052;-72
2022/02/15 03:50:51;;;;;;;37.33;23.23;;;4.80;99.90;;;;;;2082245;28;20539;-73
2022/02/15 03:51:53;;;;;;;37.10;24.27;;;4.80;99.90;;;;;;2073688;28;20401;-72
2022/02/15 03:52:54;;;;;;;35.65;24.10;;;4.70;99.90;;;;;;2075036;28;20061;-73
2022/02/15 03:53:56;;;;;;;36.70;25.10;;;4.80;99.90;;;;;;2082970;28;20116;-72
2022/02/15 03:54:56;;;;;;;38.72;25.92;;;4.80;99.90;;;;;;2082022;28;20037;-72
2022/02/15 03:55:57;;;;;;;39.28;25.48;;;4.80;99.90;;;;;;2090116;28;20884;-73
2022/02/15 03:56:58;;;;;;;36.13;24.60;;;4.80;99.90;;;;;;2089111;28;20087;-73
2022/02/15 03:58:01;;;;;;;38.60;26.15;;;4.80;99.90;;;;;;2089100;28;20021;-73
2022/02/15 03:59:03;;;;;;;38.92;25.95;;;4.80;99.90;;;;;;2084571;28;20021;-73
2022/02/15 04:00:06;;;;;;;38.60;27.15;;;4.80;99.90;;;;;;2082380;28;20551;-72
2022/02/15 04:01:13;;;;;;;39.53;26.40;;;4.80;99.90;;;;;;2088875;28;20040;-71
2022/02/15 04:02:14;;;;;;;41.22;27.48;;;4.80;99.90;;;;;;2088679;28;20065;-72
2022/02/15 04:03:15;;;;;;;38.20;26.33;;;4.80;99.90;;;;;;2080494;28;20040;-71
2022/02/15 04:04:18;;;;;;;39.10;25.67;;;4.80;99.90;;;;;;2081982;28;20033;-72
2022/02/15 04:05:19;;;;;;;37.10;25.48;;;4.80;99.90;;;;;;2075721;28;20033;-71
2022/02/15 04:06:20;;;;;;;35.22;24.00;;;4.80;99.90;;;;;;2074187;28;20044;-72
2022/02/15 04:07:21;;;;;;;35.15;23.98;;;4.80;99.90;;;;;;2080814;28;20040;-72
2022/02/15 04:08:23;;;;;;;36.00;24.33;;;4.90;99.90;;;;;;2081640;28;20116;-72
2022/02/15 04:09:24;;;;;;;39.92;26.13;;;4.90;99.90;;;;;;2080718;28;20117;-74
2022/02/15 04:10:25;;;;;;;39.03;26.83;;;4.90;99.90;;;;;;2080288;28;20029;-73
2022/02/15 04:11:27;;;;;;;39.70;27.08;;;4.90;99.90;;;;;;2081546;28;20068;-72
2022/02/15 04:12:28;;;;;;;36.53;24.70;;;4.90;99.90;;;;;;2082088;28;20087;-71
2022/02/15 04:13:31;;;;;;;34.40;24.02;;;4.90;99.90;;;;;;2080056;28;20030;-72
2022/02/15 04:14:33;;;;;;;38.05;26.25;;;4.90;99.90;;;;;;2089872;28;20028;-73
2022/02/15 04:15:34;;;;;;;34.97;24.95;;;4.90;99.90;;;;;;2073866;28;20037;-73
2022/02/15 04:16:35;;;;;;;39.42;26.42;;;4.90;99.90;;;;;;2082329;28;20756;-72
2022/02/15 04:17:36;;;;;;;38.38;25.35;;;4.90;99.90;;;;;;2091390;28;20025;-72
2022/02/15 04:18:43;;;;;;;37.20;24.95;;;5.00;99.90;;;;;;2084232;28;20005;-73
2022/02/15 04:19:44;;;;;;;34.80;23.60;;;5.00;99.90;;;;;;2082580;28;20017;-73
2022/02/15 04:20:45;;;;;;;35.95;24.02;;;5.00;99.90;;;;;;2090185;28;20107;-73
2022/02/15 04:21:46;;;;;;;34.03;22.33;;;5.00;99.90;;;;;;2089486;28;20024;-75
2022/02/15 04:22:47;;;;;;;40.35;26.13;;;5.00;99.90;;;;;;2072618;28;20094;-74
2022/02/15 04:23:51;;;;;;;38.55;25.23;;;5.00;99.90;;;;;;2075734;28;20026;-73
2022/02/15 04:24:52;;;;;;;37.78;25.23;;;5.00;99.90;;;;;;2082374;28;20029;-73
2022/02/15 04:25:53;;;;;;;37.42;25.27;;;5.00;99.90;;;;;;2089155;28;20033;-73
2022/02/15 04:27:05;;;;;;;35.45;23.75;;;5.00;99.90;;;;;;2091741;28;20025;-73
2022/02/15 04:28:05;;;;;;;39.78;25.33;;;5.00;99.90;;;;;;2083150;28;20548;-72
2022/02/15 04:29:07;;;;;;;41.97;26.80;;;5.00;99.90;;;;;;2090997;28;20036;-72
2022/02/15 04:30:28;;;;;;;36.88;25.15;;;5.00;99.90;;;;;;2088646;28;20512;-72
2022/02/15 04:31:29;;;;;;;38.35;25.65;;;4.90;99.90;;;;;;2088376;28;20036;-72
2022/02/15 04:32:30;;;;;;;37.38;24.70;;;5.00;99.90;;;;;;2080335;28;20033;-72
2022/02/15 04:33:33;;;;;;;37.13;24.55;;;4.90;99.90;;;;;;2088012;28;20136;-72
2022/02/15 04:34:34;;;;;;;37.67;24.83;;;5.00;99.90;;;;;;2079937;28;20026;-72
2022/02/15 04:35:34;;;;;;;36.78;24.17;;;5.00;99.90;;;;;;2088235;28;20029;-72
2022/02/15 04:36:36;;;;;;;35.42;23.92;;;5.00;99.90;;;;;;2088039;28;20063;-73
2022/02/15 04:37:37;;;;;;;36.63;24.63;;;5.00;99.90;;;;;;2079998;28;20092;-72
2022/02/15 04:38:40;;;;;;;35.92;24.58;;;5.00;99.90;;;;;;2088300;28;20009;-72
2022/02/15 04:39:41;;;;;;;37.10;24.90;;;5.00;99.90;;;;;;2079974;28;20079;-72
2022/02/15 04:40:45;;;;;;;38.22;25.25;;;5.00;99.90;;;;;;2064446;28;20414;-73
2022/02/15 04:41:52;;;;;;;40.72;26.58;;;4.90;99.90;;;;;;2073555;28;20734;-72
2022/02/15 04:42:56;;;;;;;37.60;25.05;;;4.90;99.90;;;;;;2080601;28;20482;-72
2022/02/15 04:43:57;;;;;;;38.90;25.85;;;4.90;99.90;;;;;;2079972;28;20104;-73
2022/02/15 04:45:00;;;;;;;39.35;25.30;;;4.90;99.90;;;;;;2080282;28;20040;-72
2022/02/15 04:46:27;;;;;;;36.70;24.63;;;4.90;99.90;;;;;;2087094;28;20037;-73
2022/02/15 04:47:30;;;;;;;35.90;24.45;;;4.90;99.90;;;;;;2088151;28;20124;-73
2022/02/15 04:48:31;;;;;;;36.55;24.63;;;4.90;99.90;;;;;;2079970;28;20042;-72
2022/02/15 04:49:32;;;;;;;38.25;25.15;;;4.90;99.90;;;;;;2089231;28;20117;-73
2022/02/15 04:50:33;;;;;;;39.85;25.92;;;4.80;99.90;;;;;;2087905;28;20499;-72
2022/02/15 04:51:40;;;;;;;39.80;26.13;;;4.90;99.90;;;;;;2080493;28;20455;-72
2022/02/15 04:52:41;;;;;;;37.72;25.48;;;4.80;99.90;;;;;;2080025;28;20021;-73
2022/02/15 04:53:48;;;;;;;37.60;24.98;;;4.80;99.90;;;;;;2088247;28;20028;-71
2022/02/15 04:54:49;;;;;;;36.85;24.75;;;4.80;99.90;;;;;;2079977;28;20116;-72
2022/02/15 04:55:50;;;;;;;37.63;24.55;;;4.80;99.90;;;;;;2079790;28;20041;-73
2022/02/15 04:56:52;;;;;;;34.88;24.23;;;4.80;99.90;;;;;;2088189;28;20025;-73
2022/02/15 04:57:52;;;;;;;34.97;23.75;;;4.80;99.90;;;;;;2080170;28;20497;-75
2022/02/15 04:58:53;;;;;;;32.63;23.08;;;4.90;99.90;;;;;;2080981;28;20108;-73
2022/02/15 04:59:55;;;;;;;34.65;23.30;;;4.90;99.90;;;;;;2079612;28;20037;-72
2022/02/15 05:01:02;;;;;;;35.80;24.05;;;4.90;99.90;;;;;;2080878;28;20029;-73
2022/02/15 05:02:12;;;;;;;34.78;23.40;;;4.90;99.90;;;;;;2080905;28;20033;-75
2022/02/15 05:03:13;;;;;;;34.22;22.15;;;4.80;99.90;;;;;;2079932;28;20167;-72
2022/02/15 05:05:34;;;;;;;34.20;22.83;;;4.90;99.90;;;;;;2089396;28;20554;-72
2022/02/15 05:06:34;;;;;;;31.90;21.77;;;4.90;99.90;;;;;;2089350;28;20276;-72
2022/02/15 05:07:35;;;;;;;32.17;22.25;;;4.90;99.90;;;;;;2080997;28;20033;-73
2022/02/15 05:08:36;;;;;;;35.10;24.55;;;4.90;99.90;;;;;;2080960;28;20116;-72
2022/02/15 05:09:40;;;;;;;38.80;26.17;;;4.90;99.90;;;;;;2089619;28;20031;-71
2022/02/15 05:10:41;;;;;;;38.80;25.98;;;4.90;99.90;;;;;;2089809;28;20033;-73
2022/02/15 05:11:42;;;;;;;37.75;24.98;;;4.90;99.90;;;;;;2081172;28;20025;-72
2022/02/15 05:12:42;;;;;;;40.25;26.67;;;4.90;99.90;;;;;;2082063;28;20029;-72
2022/02/15 05:13:45;;;;;;;37.40;24.98;;;4.90;99.90;;;;;;2081409;28;20030;-72
2022/02/15 05:15:12;;;;;;;38.05;25.25;;;4.90;99.90;;;;;;2083048;28;20048;-73
2022/02/15 05:16:31;;;;;;;37.28;24.80;;;4.80;99.90;;;;;;2086541;28;20063;-73
2022/02/15 05:17:52;;;;;;;36.85;24.60;;;4.80;99.90;;;;;;2083170;28;20065;-73
2022/02/15 05:18:53;;;;;;;40.92;24.60;;;4.80;99.90;;;;;;2080816;28;20029;-73
2022/02/15 05:19:59;;;;;;;41.13;26.38;;;4.90;99.90;;;;;;2073211;28;20022;-73
2022/02/15 05:21:02;;;;;;;38.75;25.45;;;4.80;99.90;;;;;;2088447;28;20029;-73
2022/02/15 05:22:03;;;;;;;35.90;24.42;;;4.80;99.90;;;;;;2088103;28;20032;-73
2022/02/15 05:23:13;;;;;;;33.28;23.13;;;4.80;99.90;;;;;;2079980;28;20108;-73
2022/02/15 05:24:16;;;;;;;35.08;22.88;;;4.90;99.90;;;;;;2073850;28;20153;-73
2022/02/15 05:25:26;;;;;;;32.65;22.10;;;4.90;99.90;;;;;;2081209;28;20116;-73
2022/02/15 05:26:27;;;;;;;35.90;23.73;;;4.80;99.90;;;;;;2079762;28;20025;-73